Time;durP1;ratioP1;P1;durP2;ratioP2;P2;SDS_P1;SDS_P2;PMS_P1;PMS_P2;Temp;Humidity;BMP_temperature;BMP_pressure;BME280_temperature;BME280_humidity;BME280_pressure;Samples;Min_cycle;Max_cycle;Signal;HPM_P1;HPM_P2
2022/10/14 00:01:14;;;;;;;0.03;0.03;;;12.30;99.90;;;;;;5033053;28;20634;-75
2022/10/14 00:03:42;;;;;;;0.00;0.00;;;12.30;99.90;;;;;;5031895;28;20253;-75
2022/10/14 00:06:14;;;;;;;0.00;0.00;;;12.30;99.90;;;;;;5030990;28;20195;-76
2022/10/14 00:08:43;;;;;;;0.00;0.00;;;12.30;99.90;;;;;;5030260;28;20729;-76
2022/10/14 00:11:17;;;;;;;0.10;0.10;;;12.20;99.90;;;;;;5032219;28;20666;-76
2022/10/14 00:13:45;;;;;;;0.00;0.00;;;12.20;99.90;;;;;;5033401;28;20215;-76
2022/10/14 00:16:19;;;;;;;0.10;0.10;;;12.20;99.90;;;;;;5035336;28;20188;-76
2022/10/14 00:18:47;;;;;;;0.05;0.05;;;12.20;99.90;;;;;;5031524;28;20264;-76
2022/10/14 00:21:17;;;;;;;0.00;0.00;;;12.20;99.90;;;;;;5033270;28;20268;-76
2022/10/14 00:23:46;;;;;;;0.10;0.10;;;12.20;99.90;;;;;;5035567;28;20195;-76
2022/10/14 00:26:19;;;;;;;0.10;0.10;;;12.20;99.90;;;;;;5037779;28;20253;-76
2022/10/14 00:28:48;;;;;;;0.00;0.00;;;12.30;99.90;;;;;;5038065;28;20195;-76
2022/10/14 00:31:17;;;;;;;0.00;0.00;;;12.30;99.90;;;;;;5034754;28;20739;-76
2022/10/14 00:33:47;;;;;;;0.00;0.00;;;12.30;99.90;;;;;;5033514;28;20211;-76
2022/10/14 00:36:18;;;;;;;0.00;0.00;;;12.30;99.90;;;;;;5031833;28;20235;-76
2022/10/14 00:38:47;;;;;;;0.10;0.10;;;12.40;99.90;;;;;;5034086;28;20199;-75
2022/10/14 00:41:17;;;;;;;0.10;0.10;;;12.40;99.90;;;;;;5020590;28;20195;-76
2022/10/14 00:43:59;;;;;;;0.00;0.00;;;12.40;99.90;;;;;;5025224;28;20191;-77
2022/10/14 00:46:29;;;;;;;0.00;0.00;;;12.40;99.90;;;;;;5029211;28;20222;-75
2022/10/14 00:49:06;;;;;;;0.00;0.00;;;12.50;99.90;;;;;;5033829;28;20550;-75
2022/10/14 00:51:37;;;;;;;0.00;0.00;;;12.50;99.90;;;;;;5035153;28;20245;-76
2022/10/14 00:54:06;;;;;;;0.00;0.00;;;12.50;99.90;;;;;;5034129;28;20288;-76
2022/10/14 00:56:35;;;;;;;0.00;0.00;;;12.60;99.90;;;;;;5032952;28;20230;-76
2022/10/14 00:59:05;;;;;;;0.00;0.00;;;12.60;99.90;;;;;;5033654;28;20260;-76
2022/10/14 01:01:33;;;;;;;0.00;0.00;;;12.60;99.90;;;;;;5033717;28;20206;-76
2022/10/14 01:04:01;;;;;;;0.10;0.10;;;12.60;99.90;;;;;;5033650;28;20210;-76
2022/10/14 01:06:42;;;;;;;0.00;0.00;;;12.60;99.90;;;;;;5032308;28;20246;-76
2022/10/14 01:09:23;;;;;;;0.00;0.00;;;12.60;99.90;;;;;;5021443;28;20261;-76
2022/10/14 01:12:00;;;;;;;0.00;0.00;;;12.60;99.90;;;;;;5034632;28;20207;-77
2022/10/14 01:14:58;;;;;;;0.10;0.10;;;12.50;99.90;;;;;;5032795;28;20302;-76
2022/10/14 01:17:36;;;;;;;0.03;0.03;;;12.40;99.90;;;;;;5029974;28;20222;-76
2022/10/14 01:20:32;;;;;;;0.00;0.00;;;12.30;99.90;;;;;;5027677;28;20569;-76
2022/10/14 01:23:20;;;;;;;0.00;0.00;;;12.30;99.90;;;;;;5028254;28;20225;-76
2022/10/14 01:25:56;;;;;;;0.03;0.03;;;12.30;99.90;;;;;;5034281;28;20249;-76
2022/10/14 01:28:30;;;;;;;0.10;0.10;;;12.30;99.90;;;;;;5032092;28;20577;-76
2022/10/14 01:31:03;;;;;;;0.00;0.00;;;12.30;99.90;;;;;;5018247;28;20206;-76
2022/10/14 01:33:36;;;;;;;0.10;0.10;;;12.30;99.90;;;;;;5032213;28;20677;-76
2022/10/14 01:36:10;;;;;;;0.00;0.00;;;12.30;99.90;;;;;;5024219;28;20226;-75
2022/10/14 01:38:42;;;;;;;0.00;0.00;;;12.30;99.90;;;;;;5032769;28;20207;-77
2022/10/14 01:41:15;;;;;;;0.05;0.05;;;12.30;99.90;;;;;;5031762;28;20214;-77
2022/10/14 01:43:46;;;;;;;0.00;0.00;;;12.30;99.90;;;;;;5031470;28;20673;-76
2022/10/14 01:46:19;;;;;;;0.10;0.10;;;12.40;99.90;;;;;;5032689;28;20215;-75
2022/10/14 01:48:51;;;;;;;0.10;0.10;;;12.40;99.90;;;;;;5033874;28;20191;-76
2022/10/14 01:51:25;;;;;;;0.10;0.10;;;12.40;99.90;;;;;;5033132;28;20207;-76
2022/10/14 01:53:57;;;;;;;0.00;0.00;;;12.40;99.90;;;;;;5031193;28;20583;-76
2022/10/14 01:56:29;;;;;;;0.00;0.00;;;12.30;99.90;;;;;;5033609;28;20246;-76
2022/10/14 01:59:00;;;;;;;0.00;0.00;;;12.30;99.90;;;;;;5032169;28;20265;-77
2022/10/14 02:01:30;;;;;;;0.10;0.10;;;12.30;99.90;;;;;;5032543;28;20211;-76
2022/10/14 02:03:58;;;;;;;0.05;0.05;;;12.30;99.90;;;;;;5031218;28;20290;-75
2022/10/14 02:06:32;;;;;;;0.00;0.00;;;12.30;99.90;;;;;;5030214;28;20214;-76
2022/10/14 02:09:11;;;;;;;0.00;0.00;;;12.40;99.90;;;;;;5022323;28;20195;-75
2022/10/14 02:11:53;;;;;;;0.00;0.00;;;12.40;99.90;;;;;;5031999;28;20693;-75
2022/10/14 02:14:32;;;;;;;0.10;0.10;;;12.40;99.90;;;;;;5031355;28;20249;-75
2022/10/14 02:17:06;;;;;;;0.00;0.00;;;12.40;99.90;;;;;;5024473;28;20716;-75
2022/10/14 02:19:41;;;;;;;0.10;0.10;;;12.40;99.90;;;;;;5031147;28;20203;-75
2022/10/14 02:22:20;;;;;;;0.00;0.00;;;12.40;99.90;;;;;;5032079;28;20206;-75
2022/10/14 02:24:53;;;;;;;0.10;0.10;;;12.50;99.90;;;;;;5027206;28;20195;-76
2022/10/14 02:27:24;;;;;;;0.00;0.00;;;12.50;99.90;;;;;;5028800;28;20289;-76
2022/10/14 02:29:55;;;;;;;0.00;0.00;;;12.50;99.90;;;;;;5028344;28;20203;-75
2022/10/14 02:32:27;;;;;;;0.00;0.00;;;12.50;99.90;;;;;;5027932;28;20211;-76
2022/10/14 02:34:58;;;;;;;0.10;0.10;;;12.50;99.90;;;;;;5023937;28;20225;-76
2022/10/14 02:37:29;;;;;;;0.00;0.00;;;12.50;99.90;;;;;;5031398;28;20221;-76
2022/10/14 02:40:04;;;;;;;0.00;0.00;;;12.60;99.90;;;;;;5032970;28;20198;-76
2022/10/14 02:42:32;;;;;;;0.00;0.00;;;12.60;99.90;;;;;;5030462;28;20332;-76
2022/10/14 02:45:05;;;;;;;0.00;0.00;;;12.60;99.90;;;;;;5031819;28;20286;-76
2022/10/14 02:47:34;;;;;;;0.00;0.00;;;12.60;99.90;;;;;;5030843;28;20276;-75
2022/10/14 02:50:02;;;;;;;0.00;0.00;;;12.60;99.90;;;;;;5031721;28;20191;-76
2022/10/14 02:52:30;;;;;;;0.00;0.00;;;12.60;99.90;;;;;;5031331;28;20203;-76
2022/10/14 02:54:58;;;;;;;0.00;0.00;;;12.50;99.90;;;;;;5031343;28;20234;-76
2022/10/14 02:57:26;;;;;;;0.00;0.00;;;12.60;99.90;;;;;;5031032;28;20231;-76
2022/10/14 02:59:56;;;;;;;0.00;0.00;;;12.50;99.90;;;;;;5030428;28;20270;-76
2022/10/14 03:02:25;;;;;;;0.00;0.00;;;12.60;99.90;;;;;;5031134;28;20575;-75
2022/10/14 03:04:54;;;;;;;0.00;0.00;;;12.60;99.90;;;;;;5030251;28;20203;-75
2022/10/14 03:07:23;;;;;;;0.10;0.10;;;12.60;99.90;;;;;;5030183;28;20227;-77
2022/10/14 03:09:52;;;;;;;0.00;0.00;;;12.60;99.90;;;;;;5029882;28;20241;-75
2022/10/14 03:12:20;;;;;;;0.03;0.03;;;12.50;99.90;;;;;;5030192;28;20207;-75
2022/10/14 03:14:49;;;;;;;0.00;0.00;;;12.50;99.90;;;;;;5029668;28;20257;-75
2022/10/14 03:17:18;;;;;;;0.10;0.10;;;12.50;99.90;;;;;;5029572;28;20215;-76
2022/10/14 03:19:49;;;;;;;0.00;0.00;;;12.50;99.90;;;;;;5046224;28;20203;-75
2022/10/14 03:22:19;;;;;;;0.00;0.00;;;12.60;99.90;;;;;;5029945;28;20203;-76
2022/10/14 03:24:47;;;;;;;0.00;0.00;;;12.50;99.90;;;;;;5031800;28;20231;-75
2022/10/14 03:27:44;;;;;;;0.00;0.00;;;12.60;99.90;;;;;;5021598;28;20234;-76
2022/10/14 03:30:15;;;;;;;0.00;0.00;;;12.60;99.90;;;;;;5029542;28;20207;-75
2022/10/14 03:32:55;;;;;;;0.10;0.10;;;12.50;99.90;;;;;;5026224;28;20518;-76
2022/10/14 03:35:35;;;;;;;0.00;0.00;;;12.50;99.90;;;;;;5030541;28;20238;-73
2022/10/14 03:38:08;;;;;;;0.00;0.00;;;12.50;99.90;;;;;;5030067;28;20715;-74
2022/10/14 03:40:36;;;;;;;0.00;0.00;;;12.50;99.90;;;;;;5028959;28;20285;-74
2022/10/14 03:43:08;;;;;;;0.00;0.00;;;12.50;99.90;;;;;;5030512;28;20199;-74
2022/10/14 03:45:46;;;;;;;0.00;0.00;;;12.50;99.90;;;;;;5029799;28;20210;-73
2022/10/14 03:48:16;;;;;;;0.00;0.00;;;12.50;99.90;;;;;;5056313;28;20223;-73
2022/10/14 03:50:46;;;;;;;0.00;0.00;;;12.60;99.90;;;;;;5029203;28;20210;-73
2022/10/14 03:53:16;;;;;;;0.00;0.00;;;12.60;99.90;;;;;;5029255;28;20207;-73
2022/10/14 03:55:44;;;;;;;0.00;0.00;;;12.60;99.90;;;;;;5029572;28;20213;-73
2022/10/14 03:58:13;;;;;;;0.00;0.00;;;12.60;99.90;;;;;;5063269;28;20253;-76
2022/10/14 04:00:48;;;;;;;0.00;0.00;;;12.60;99.90;;;;;;5054582;28;20202;-75
2022/10/14 04:03:32;;;;;;;0.00;0.00;;;12.60;99.90;;;;;;5029250;28;20601;-76
2022/10/14 04:06:00;;;;;;;0.00;0.00;;;12.50;99.90;;;;;;5029624;28;20203;-76
2022/10/14 04:08:31;;;;;;;0.00;0.00;;;12.50;99.90;;;;;;5047516;28;20222;-77
2022/10/14 04:11:10;;;;;;;0.00;0.00;;;12.50;99.90;;;;;;5014570;28;20198;-76
2022/10/14 04:13:40;;;;;;;0.10;0.10;;;12.50;99.90;;;;;;5024447;28;20254;-76
2022/10/14 04:16:10;;;;;;;0.00;0.00;;;12.50;99.90;;;;;;5020236;28;20577;-76
2022/10/14 04:18:59;;;;;;;0.00;0.00;;;12.50;99.90;;;;;;5022541;28;20281;-76
2022/10/14 04:21:27;;;;;;;0.10;0.10;;;12.50;99.90;;;;;;5029396;28;20615;-76
2022/10/14 04:23:56;;;;;;;0.10;0.10;;;12.50;99.90;;;;;;5030093;28;20684;-76
2022/10/14 04:26:36;;;;;;;0.00;0.00;;;12.50;99.90;;;;;;5029817;28;20755;-76
2022/10/14 04:29:11;;;;;;;0.00;0.00;;;12.50;99.90;;;;;;5025399;28;20245;-76
2022/10/14 04:31:50;;;;;;;0.00;0.00;;;12.50;99.90;;;;;;5021191;28;20203;-75
2022/10/14 04:34:19;;;;;;;0.03;0.03;;;12.50;99.90;;;;;;5030404;28;20207;-75
2022/10/14 04:36:49;;;;;;;0.00;0.00;;;12.50;99.90;;;;;;5030564;28;20226;-76
2022/10/14 04:39:25;;;;;;;0.00;0.00;;;12.50;99.90;;;;;;5043629;28;20201;-77
2022/10/14 04:41:53;;;;;;;0.10;0.10;;;12.50;99.90;;;;;;5030014;28;20206;-77
2022/10/14 04:44:22;;;;;;;0.00;0.00;;;12.50;99.90;;;;;;5029709;28;20209;-77
2022/10/14 04:46:54;;;;;;;0.00;0.00;;;12.50;99.90;;;;;;5030341;28;20227;-76
2022/10/14 04:49:24;;;;;;;0.00;0.00;;;12.60;99.90;;;;;;5029579;28;20210;-77
2022/10/14 04:52:15;;;;;;;0.00;0.00;;;12.60;99.90;;;;;;5029741;28;20273;-76
2022/10/14 04:54:51;;;;;;;0.00;0.00;;;12.60;99.90;;;;;;5029489;28;20195;-77
2022/10/14 04:57:29;;;;;;;0.10;0.10;;;12.60;99.90;;;;;;5028932;28;20223;-79
2022/10/14 04:59:57;;;;;;;0.00;0.00;;;12.60;99.90;;;;;;5026020;28;20277;-79
2022/10/14 05:02:50;;;;;;;0.00;0.00;;;12.70;99.90;;;;;;5026184;28;20200;-79
2022/10/14 05:05:19;;;;;;;0.10;0.10;;;12.60;99.90;;;;;;5021502;28;20254;-79
2022/10/14 05:07:52;;;;;;;0.08;0.08;;;12.70;99.90;;;;;;5026313;28;20786;-81
2022/10/14 05:10:26;;;;;;;0.00;0.00;;;12.60;99.90;;;;;;5030602;28;20237;-79
2022/10/14 05:12:55;;;;;;;0.10;0.10;;;12.60;99.90;;;;;;5051385;28;20220;-78
2022/10/14 05:15:26;;;;;;;0.00;0.00;;;12.60;99.90;;;;;;5025784;28;20203;-79
2022/10/14 05:18:01;;;;;;;0.00;0.00;;;12.60;99.90;;;;;;5014759;28;20730;-80
2022/10/14 05:20:48;;;;;;;0.00;0.00;;;12.60;99.90;;;;;;5027720;28;20199;-80
2022/10/14 05:23:18;;;;;;;0.00;0.00;;;12.70;99.90;;;;;;5039716;28;20674;-77
2022/10/14 05:25:47;;;;;;;0.00;0.00;;;12.70;99.90;;;;;;5033550;28;20215;-77
2022/10/14 05:28:16;;;;;;;0.00;0.00;;;12.70;99.90;;;;;;5065093;28;20214;-77
2022/10/14 05:30:45;;;;;;;0.00;0.00;;;12.70;99.90;;;;;;5038807;28;20617;-77
2022/10/14 05:33:13;;;;;;;0.00;0.00;;;12.60;99.90;;;;;;5030103;28;20245;-80
2022/10/14 05:35:42;;;;;;;0.00;0.00;;;12.60;99.90;;;;;;5032852;28;20222;-78
2022/10/14 05:38:27;;;;;;;0.00;0.00;;;12.60;99.90;;;;;;5021159;28;20741;-78
2022/10/14 05:40:57;;;;;;;0.10;0.10;;;12.50;99.90;;;;;;5013073;28;20242;-80
2022/10/14 05:43:26;;;;;;;0.00;0.00;;;12.50;99.90;;;;;;5013401;28;20207;-79
2022/10/14 05:46:00;;;;;;;0.10;0.10;;;12.50;99.90;;;;;;5031469;28;20285;-80
2022/10/14 05:48:31;;;;;;;0.10;0.10;;;12.50;99.90;;;;;;5052341;28;20209;-79
2022/10/14 05:51:01;;;;;;;0.05;0.05;;;12.60;99.90;;;;;;5052560;28;20205;-78
2022/10/14 05:53:31;;;;;;;0.03;0.03;;;12.50;99.90;;;;;;5052810;28;20289;-78
2022/10/14 05:56:06;;;;;;;0.10;0.10;;;12.50;99.90;;;;;;5052320;28;20237;-78
2022/10/14 05:58:37;;;;;;;0.00;0.00;;;12.50;99.90;;;;;;5053453;28;20217;-79
2022/10/14 06:01:08;;;;;;;0.00;0.00;;;12.60;99.90;;;;;;5052730;28;20615;-80
2022/10/14 06:03:39;;;;;;;0.10;0.10;;;12.60;99.90;;;;;;5053078;28;20224;-79
2022/10/14 06:06:12;;;;;;;0.00;0.00;;;12.60;99.90;;;;;;5052788;28;20202;-80
2022/10/14 06:08:41;;;;;;;0.00;0.00;;;12.60;99.90;;;;;;5052240;28;20186;-79
2022/10/14 06:11:11;;;;;;;0.03;0.03;;;12.60;99.90;;;;;;5054338;28;20259;-79
2022/10/14 06:13:39;;;;;;;0.00;0.00;;;12.60;99.90;;;;;;5053173;28;20195;-81
2022/10/14 06:16:10;;;;;;;0.10;0.10;;;12.60;99.90;;;;;;5054576;28;20341;-82
2022/10/14 06:18:38;;;;;;;0.10;0.10;;;12.70;99.90;;;;;;5054262;28;20218;-79
2022/10/14 06:21:07;;;;;;;0.00;0.00;;;12.70;99.90;;;;;;5047327;28;20226;-78
2022/10/14 06:23:35;;;;;;;0.00;0.00;;;12.80;99.90;;;;;;5022398;28;20740;-80
2022/10/14 06:26:04;;;;;;;0.00;0.00;;;12.70;99.90;;;;;;5024088;28;20199;-79
2022/10/14 06:28:34;;;;;;;0.10;0.10;;;12.70;99.90;;;;;;5035284;28;20257;-79
2022/10/14 06:31:02;;;;;;;0.00;0.00;;;12.70;99.90;;;;;;5034225;28;20199;-78
2022/10/14 06:33:30;;;;;;;0.10;0.10;;;12.70;99.90;;;;;;5035607;28;20658;-78
2022/10/14 06:35:59;;;;;;;0.00;0.00;;;12.60;99.90;;;;;;5033661;28;20203;-78
2022/10/14 06:38:26;;;;;;;0.00;0.00;;;12.60;99.90;;;;;;5033318;28;20273;-78
2022/10/14 06:40:55;;;;;;;0.00;0.00;;;12.70;99.90;;;;;;5033447;28;20688;-78
2022/10/14 06:43:23;;;;;;;0.00;0.00;;;12.70;99.90;;;;;;5033322;28;20196;-78
2022/10/14 06:45:53;;;;;;;0.00;0.00;;;12.70;99.90;;;;;;5032994;28;20191;-78
2022/10/14 06:48:21;;;;;;;0.00;0.00;;;12.70;99.90;;;;;;5033446;28;20183;-79
2022/10/14 06:50:49;;;;;;;0.10;0.10;;;12.70;99.90;;;;;;5032927;28;20241;-78
2022/10/14 06:53:17;;;;;;;0.00;0.00;;;12.70;99.90;;;;;;5033011;28;20193;-78
2022/10/14 06:55:45;;;;;;;0.00;0.00;;;12.70;99.90;;;;;;5031434;28;20213;-79
2022/10/14 06:58:13;;;;;;;0.00;0.00;;;12.70;99.90;;;;;;5032548;28;20219;-78
2022/10/14 07:00:41;;;;;;;0.00;0.00;;;12.70;99.90;;;;;;5032804;28;20195;-79
2022/10/14 07:03:15;;;;;;;0.00;0.00;;;12.70;99.90;;;;;;5032910;28;20195;-78
2022/10/14 07:05:43;;;;;;;0.00;0.00;;;12.80;99.90;;;;;;5032803;28;20199;-77
2022/10/14 07:08:11;;;;;;;0.00;0.00;;;12.80;99.90;;;;;;5032918;28;20210;-77
2022/10/14 07:10:42;;;;;;;0.10;0.10;;;12.80;99.90;;;;;;5032901;28;20218;-79
2022/10/14 07:13:10;;;;;;;0.00;0.00;;;12.90;99.90;;;;;;5033005;28;20607;-79
2022/10/14 07:15:38;;;;;;;0.00;0.00;;;12.90;99.90;;;;;;5033590;28;20245;-78
2022/10/14 07:18:07;;;;;;;0.00;0.00;;;13.00;99.90;;;;;;5032513;28;20223;-77
2022/10/14 07:20:36;;;;;;;0.00;0.00;;;13.00;99.90;;;;;;5033107;28;20249;-78
2022/10/14 07:23:04;;;;;;;0.00;0.00;;;13.00;99.90;;;;;;5032841;28;20719;-78
2022/10/14 07:25:32;;;;;;;0.00;0.00;;;13.00;99.90;;;;;;5033483;28;20191;-78
2022/10/14 07:28:00;;;;;;;0.00;0.00;;;13.00;99.90;;;;;;5036047;28;20281;-78
2022/10/14 07:30:28;;;;;;;0.00;0.00;;;13.00;99.90;;;;;;5033272;28;20305;-78
2022/10/14 07:32:56;;;;;;;0.00;0.00;;;13.00;99.90;;;;;;5033913;28;20195;-78
2022/10/14 07:35:25;;;;;;;0.00;0.00;;;13.00;99.90;;;;;;5033483;28;20626;-78
2022/10/14 07:37:57;;;;;;;0.00;0.00;;;13.00;99.90;;;;;;5031883;28;20257;-79
2022/10/14 07:40:25;;;;;;;0.00;0.00;;;13.00;99.90;;;;;;5032949;28;20190;-79
2022/10/14 07:42:53;;;;;;;0.00;0.00;;;13.10;99.90;;;;;;5032055;28;20195;-78
2022/10/14 07:45:21;;;;;;;0.00;0.00;;;13.10;99.90;;;;;;5030862;28;20202;-79
2022/10/14 07:47:51;;;;;;;0.00;0.00;;;13.10;99.90;;;;;;5031697;28;20278;-80
2022/10/14 07:50:19;;;;;;;0.00;0.00;;;13.10;99.90;;;;;;5032464;28;20195;-78
2022/10/14 07:52:47;;;;;;;0.10;0.10;;;13.20;99.90;;;;;;5032472;28;20198;-78
2022/10/14 07:55:16;;;;;;;0.05;0.05;;;13.20;99.90;;;;;;5032511;28;20227;-78
2022/10/14 07:57:44;;;;;;;0.00;0.00;;;13.20;99.90;;;;;;5031278;28;20226;-78
2022/10/14 08:00:12;;;;;;;0.03;0.03;;;13.20;99.90;;;;;;5032090;28;20199;-78
2022/10/14 08:02:40;;;;;;;0.00;0.00;;;13.20;99.90;;;;;;5032136;28;20201;-78
2022/10/14 08:05:09;;;;;;;0.00;0.00;;;13.20;99.90;;;;;;5031980;28;20241;-78
2022/10/14 08:07:57;;;;;;;0.00;0.00;;;13.20;99.90;;;;;;5031465;28;20219;-78
2022/10/14 08:10:26;;;;;;;0.00;0.00;;;13.20;99.90;;;;;;5032077;28;20253;-78
2022/10/14 08:12:56;;;;;;;0.10;0.10;;;13.30;99.90;;;;;;5031985;28;20198;-78
2022/10/14 08:15:27;;;;;;;0.00;0.00;;;13.30;99.90;;;;;;5032475;28;20202;-78
2022/10/14 08:17:55;;;;;;;0.00;0.00;;;13.40;99.90;;;;;;5031926;28;20268;-78
2022/10/14 08:20:23;;;;;;;0.00;0.00;;;13.50;99.90;;;;;;5031252;28;20199;-79
2022/10/14 08:22:51;;;;;;;0.00;0.00;;;13.50;99.90;;;;;;5032121;28;20195;-79
2022/10/14 08:25:19;;;;;;;0.10;0.10;;;13.60;99.90;;;;;;5033459;28;20253;-78
2022/10/14 08:27:50;;;;;;;0.00;0.00;;;13.70;99.90;;;;;;5033805;28;20309;-79
2022/10/14 08:30:18;;;;;;;0.00;0.00;;;13.80;99.90;;;;;;5032493;28;20253;-78
2022/10/14 08:32:46;;;;;;;0.00;0.00;;;13.90;99.90;;;;;;5031541;28;20194;-78
2022/10/14 08:35:14;;;;;;;0.00;0.00;;;14.00;99.90;;;;;;5032248;28;20670;-79
2022/10/14 08:37:42;;;;;;;0.00;0.00;;;14.10;99.90;;;;;;5031618;28;20627;-79
2022/10/14 08:40:15;;;;;;;0.10;0.10;;;14.10;99.90;;;;;;5032844;28;20195;-79
2022/10/14 08:42:54;;;;;;;0.10;0.10;;;14.20;99.90;;;;;;5031768;28;20199;-79
2022/10/14 08:45:28;;;;;;;0.00;0.00;;;14.10;99.90;;;;;;5033823;28;20202;-79
2022/10/14 08:48:02;;;;;;;0.00;0.00;;;14.10;99.90;;;;;;5037131;28;20225;-78
2022/10/14 08:50:33;;;;;;;0.10;0.10;;;14.10;99.90;;;;;;5036708;28;20199;-79
2022/10/14 08:53:06;;;;;;;0.10;0.10;;;14.00;99.90;;;;;;5036780;28;20268;-79
2022/10/14 08:55:38;;;;;;;0.10;0.10;;;14.10;99.90;;;;;;5037331;28;20199;-78
2022/10/14 08:58:13;;;;;;;0.00;0.00;;;14.10;99.90;;;;;;5036548;28;20693;-79
2022/10/14 09:00:42;;;;;;;0.00;0.00;;;14.10;99.90;;;;;;5036444;28;20281;-81
2022/10/14 09:03:20;;;;;;;0.00;0.00;;;14.20;99.90;;;;;;5035808;28;20248;-79
2022/10/14 09:05:57;;;;;;;0.10;0.10;;;14.20;99.90;;;;;;5036187;28;20265;-79
2022/10/14 09:08:32;;;;;;;0.10;0.10;;;14.20;99.90;;;;;;5036467;28;20187;-78
2022/10/14 09:11:00;;;;;;;0.00;0.00;;;14.10;99.90;;;;;;5036217;28;20668;-79
2022/10/14 09:13:35;;;;;;;0.00;0.00;;;14.10;99.90;;;;;;5035291;28;20210;-79
2022/10/14 09:16:07;;;;;;;0.00;0.00;;;14.10;99.90;;;;;;5034531;28;20230;-79
2022/10/14 09:18:43;;;;;;;0.00;0.00;;;14.10;99.90;;;;;;5035648;28;20211;-78
2022/10/14 09:21:25;;;;;;;0.10;0.10;;;14.10;99.90;;;;;;5034877;28;20203;-78
2022/10/14 09:24:15;;;;;;;0.00;0.00;;;14.20;99.90;;;;;;5035636;28;20191;-78
2022/10/14 09:26:45;;;;;;;0.00;0.00;;;14.10;99.90;;;;;;5035660;28;20624;-79
2022/10/14 09:29:23;;;;;;;0.03;0.03;;;14.10;99.90;;;;;;5035842;28;20694;-78
2022/10/14 09:31:51;;;;;;;0.00;0.00;;;14.10;99.90;;;;;;5035492;28;20225;-79
2022/10/14 09:34:24;;;;;;;0.00;0.00;;;14.10;99.90;;;;;;5036782;28;20195;-78
2022/10/14 09:36:53;;;;;;;0.00;0.00;;;14.20;99.90;;;;;;5034492;28;20219;-78
2022/10/14 09:39:21;;;;;;;0.00;0.00;;;14.30;99.90;;;;;;5036047;28;20218;-79
2022/10/14 09:41:53;;;;;;;0.00;0.00;;;14.40;99.90;;;;;;5036889;28;20195;-78
2022/10/14 09:44:24;;;;;;;0.10;0.10;;;14.50;99.90;;;;;;5035694;28;20203;-81
2022/10/14 09:46:55;;;;;;;0.00;0.00;;;14.50;99.90;;;;;;5036243;28;20218;-78
2022/10/14 09:49:33;;;;;;;0.00;0.00;;;14.60;99.90;;;;;;5036354;28;20210;-79
2022/10/14 09:52:02;;;;;;;0.00;0.00;;;14.60;99.90;;;;;;5036896;28;20195;-79
2022/10/14 09:54:31;;;;;;;0.00;0.00;;;14.70;99.90;;;;;;5036440;28;20736;-78
2022/10/14 09:57:04;;;;;;;0.00;0.00;;;14.80;99.90;;;;;;5036638;28;20722;-80
2022/10/14 09:59:36;;;;;;;0.00;0.00;;;14.80;99.90;;;;;;5021622;28;20215;-79
2022/10/14 10:02:06;;;;;;;0.03;0.03;;;14.90;99.90;;;;;;5027641;28;20211;-78
2022/10/14 10:04:41;;;;;;;0.05;0.05;;;15.00;99.90;;;;;;5033778;28;20261;-79
2022/10/14 10:07:25;;;;;;;0.00;0.00;;;15.10;99.90;;;;;;5039886;28;20264;-78
2022/10/14 10:09:54;;;;;;;0.00;0.00;;;15.20;99.90;;;;;;5039558;28;20184;-79
2022/10/14 10:12:24;;;;;;;0.00;0.00;;;15.20;99.90;;;;;;5038143;28;20214;-78
2022/10/14 10:15:02;;;;;;;0.00;0.00;;;15.30;99.90;;;;;;5034489;28;20301;-79
2022/10/14 10:17:31;;;;;;;0.00;0.00;;;15.50;99.90;;;;;;5034214;28;20226;-81
2022/10/14 10:20:15;;;;;;;0.00;0.00;;;15.50;99.90;;;;;;5034863;28;20246;-78
2022/10/14 10:22:43;;;;;;;0.00;0.00;;;15.40;99.90;;;;;;5034700;28;20188;-78
2022/10/14 10:25:27;;;;;;;0.00;0.00;;;15.30;99.90;;;;;;5034673;28;20203;-78
2022/10/14 10:27:58;;;;;;;0.00;0.00;;;15.40;99.90;;;;;;5034877;28;20763;-79
2022/10/14 10:30:31;;;;;;;0.00;0.00;;;15.30;99.90;;;;;;5034928;28;20628;-79
2022/10/14 10:33:28;;;;;;;0.00;0.00;;;15.30;99.90;;;;;;5034824;28;20199;-78
2022/10/14 10:36:11;;;;;;;0.00;0.00;;;15.30;99.90;;;;;;5034116;28;20187;-78
2022/10/14 10:38:48;;;;;;;0.05;0.05;;;15.40;99.90;;;;;;5032288;28;20582;-78
2022/10/14 10:41:29;;;;;;;0.00;0.00;;;15.50;99.90;;;;;;5034367;28;20203;-78
2022/10/14 10:44:18;;;;;;;0.00;0.00;;;15.60;99.90;;;;;;5034057;28;20206;-81
2022/10/14 10:47:04;;;;;;;0.00;0.00;;;15.60;99.90;;;;;;5033720;28;20211;-78
2022/10/14 10:49:51;;;;;;;0.00;0.00;;;15.60;99.90;;;;;;5033731;28;20253;-75
2022/10/14 10:52:27;;;;;;;0.00;0.00;;;15.60;99.90;;;;;;5033747;28;20203;-76
2022/10/14 10:55:02;;;;;;;0.00;0.00;;;15.60;99.90;;;;;;5033146;28;20734;-75
2022/10/14 10:57:44;;;;;;;0.00;0.00;;;15.60;99.90;;;;;;5052791;23;20234;-77
2022/10/14 11:00:22;;;;;;;0.00;0.00;;;15.50;99.90;;;;;;5043483;28;20269;-76
2022/10/14 11:02:58;;;;;;;0.00;0.00;;;15.60;99.90;;;;;;5046804;28;20195;-76
2022/10/14 11:05:41;;;;;;;0.00;0.00;;;15.60;99.90;;;;;;5045081;28;20187;-76
2022/10/14 11:14:27;;;;;;;0.00;0.00;;;16.20;99.90;;;;;;5051498;28;20195;-77
2022/10/14 11:17:01;;;;;;;0.00;0.00;;;16.30;99.90;;;;;;5047911;28;20241;-76
2022/10/14 11:19:38;;;;;;;0.00;0.00;;;16.30;99.90;;;;;;5046264;28;20206;-77
2022/10/14 11:22:19;;;;;;;0.00;0.00;;;16.40;99.90;;;;;;5046450;28;20236;-77
2022/10/14 11:24:57;;;;;;;0.00;0.00;;;16.50;99.90;;;;;;5048323;28;20199;-77
2022/10/14 11:27:33;;;;;;;0.00;0.00;;;16.60;99.90;;;;;;5043397;28;20219;-76
2022/10/14 11:30:15;;;;;;;0.00;0.00;;;16.60;99.90;;;;;;5032745;28;20203;-76
2022/10/14 11:32:56;;;;;;;0.00;0.00;;;16.60;99.90;;;;;;5029324;28;20200;-76
2022/10/14 11:35:34;;;;;;;0.00;0.00;;;16.50;99.90;;;;;;5027962;28;20204;-76
2022/10/14 11:38:19;;;;;;;0.00;0.00;;;16.60;99.90;;;;;;5043335;28;20237;-77
2022/10/14 11:40:57;;;;;;;0.00;0.00;;;16.50;99.90;;;;;;5042560;28;20217;-76
2022/10/14 11:43:34;;;;;;;0.00;0.00;;;16.50;99.90;;;;;;5025559;28;20211;-76
2022/10/14 11:46:05;;;;;;;0.00;0.00;;;16.40;99.90;;;;;;5027213;28;20202;-76
2022/10/14 11:48:39;;;;;;;0.00;0.00;;;16.40;99.90;;;;;;5027425;28;20219;-76
2022/10/14 11:51:14;;;;;;;0.00;0.00;;;16.30;99.90;;;;;;5026718;28;20728;-76
2022/10/14 11:53:50;;;;;;;0.00;0.00;;;16.30;99.90;;;;;;5030558;28;20195;-76
2022/10/14 11:56:45;;;;;;;0.00;0.00;;;16.20;99.90;;;;;;5029137;28;20191;-76
2022/10/14 11:59:22;;;;;;;0.00;0.00;;;16.10;99.90;;;;;;5021870;28;20549;-78
2022/10/14 12:01:55;;;;;;;0.00;0.00;;;16.10;99.90;;;;;;5030035;28;20246;-78
2022/10/14 12:04:28;;;;;;;0.00;0.00;;;16.00;99.90;;;;;;5030233;28;20242;-78
2022/10/14 12:07:03;;;;;;;0.00;0.00;;;16.10;99.90;;;;;;5026833;28;20224;-76
2022/10/14 12:09:38;;;;;;;0.00;0.00;;;16.10;99.90;;;;;;5025985;28;20203;-78
2022/10/14 12:12:09;;;;;;;0.00;0.00;;;16.10;99.90;;;;;;5028231;28;20199;-78
2022/10/14 12:14:43;;;;;;;0.00;0.00;;;16.30;99.90;;;;;;5035306;28;20249;-76
2022/10/14 12:17:19;;;;;;;0.00;0.00;;;16.40;99.90;;;;;;5027014;28;20232;-78
2022/10/14 12:19:50;;;;;;;0.00;0.00;;;16.50;99.90;;;;;;5035984;28;20227;-76
2022/10/14 12:22:22;;;;;;;0.00;0.00;;;16.70;99.90;;;;;;5039104;28;20707;-76
2022/10/14 12:24:53;;;;;;;0.00;0.00;;;16.80;99.90;;;;;;5044399;28;20195;-76
2022/10/14 12:27:24;;;;;;;0.00;0.00;;;17.00;99.90;;;;;;5040823;28;20249;-77
2022/10/14 12:29:56;;;;;;;0.00;0.00;;;17.20;99.90;;;;;;5043595;28;20210;-76
2022/10/14 12:32:25;;;;;;;0.00;0.00;;;17.10;99.90;;;;;;5041229;28;20229;-76
2022/10/14 12:34:54;;;;;;;0.00;0.00;;;17.20;99.90;;;;;;5043666;28;20201;-78
2022/10/14 12:37:53;;;;;;;0.00;0.00;;;17.10;99.90;;;;;;5045459;28;20218;-78
2022/10/14 12:40:27;;;;;;;0.00;0.00;;;16.80;99.90;;;;;;5040118;28;20218;-78
2022/10/14 12:43:03;;;;;;;0.00;0.00;;;16.70;99.90;;;;;;5029511;28;20203;-76
2022/10/14 12:45:34;;;;;;;0.00;0.00;;;16.90;99.90;;;;;;5043559;28;20198;-76
2022/10/14 12:48:12;;;;;;;0.00;0.00;;;17.00;99.90;;;;;;5025942;28;20246;-76
2022/10/14 12:50:42;;;;;;;0.00;0.00;;;17.00;99.90;;;;;;5039356;28;20661;-76
2022/10/14 12:53:21;;;;;;;0.00;0.00;;;17.00;99.90;;;;;;5040914;28;20202;-76
2022/10/14 12:58:41;;;;;;;0.00;0.00;;;17.30;99.90;;;;;;5038884;28;20288;-76
2022/10/14 13:01:16;;;;;;;0.00;0.00;;;17.20;99.90;;;;;;5037369;28;20222;-76
2022/10/14 13:03:53;;;;;;;0.00;0.00;;;17.00;99.90;;;;;;5038538;28;20198;-78
2022/10/14 13:06:37;;;;;;;0.00;0.00;;;17.00;99.90;;;;;;5038006;28;20225;-76
2022/10/14 13:09:40;;;;;;;0.00;0.00;;;16.90;99.90;;;;;;5041247;28;20199;-76
2022/10/14 13:12:42;;;;;;;0.00;0.00;;;16.80;99.90;;;;;;5039781;28;20230;-76
2022/10/14 13:15:46;;;;;;;0.00;0.00;;;16.70;99.90;;;;;;5018932;28;20670;-76
2022/10/14 13:18:34;;;;;;;0.00;0.00;;;16.70;99.90;;;;;;5021105;28;20223;-76
2022/10/14 13:21:03;;;;;;;0.00;0.00;;;16.60;99.90;;;;;;5022181;28;20212;-76
2022/10/14 13:23:39;;;;;;;0.00;0.00;;;16.60;99.90;;;;;;5020412;28;20530;-76
2022/10/14 13:26:23;;;;;;;0.00;0.00;;;16.60;99.90;;;;;;5021753;28;20200;-76
2022/10/14 13:29:04;;;;;;;0.00;0.00;;;16.60;99.90;;;;;;5023312;28;20218;-76